createdAt,value
2017-10-14T00:00:17.117Z,1017.1
2017-10-14T00:01:17.102Z,1017.05
2017-10-14T00:02:17.090Z,1017.06
2017-10-14T00:03:17.079Z,1017.06
2017-10-14T00:04:17.066Z,1017.06
2017-10-14T00:05:17.055Z,1017.06
2017-10-14T00:06:17.041Z,1017.1
2017-10-14T00:07:17.030Z,1017.09
2017-10-14T00:08:17.016Z,1017.11
2017-10-14T00:09:17.004Z,1017.1
2017-10-14T00:10:16.992Z,1017.08
2017-10-14T00:11:16.982Z,1017.09
2017-10-14T00:12:16.965Z,1017.08
2017-10-14T00:13:16.953Z,1017.06
2017-10-14T00:14:16.943Z,1017.05
2017-10-14T00:15:16.930Z,1017.08
2017-10-14T00:16:16.916Z,1017.1
2017-10-14T00:17:16.905Z,1017.1
2017-10-14T00:18:16.892Z,1017.09
2017-10-14T00:19:16.880Z,1017.1
2017-10-14T00:20:16.868Z,1017.12
2017-10-14T00:21:16.853Z,1017.1
2017-10-14T00:22:16.842Z,1017.12
2017-10-14T00:23:16.830Z,1017.09
2017-10-14T00:24:17.024Z,1017.07
2017-10-14T00:25:16.804Z,1017.09
2017-10-14T00:26:16.791Z,1017.04
2017-10-14T00:27:16.778Z,1017.08
2017-10-14T00:28:16.768Z,1017.06
2017-10-14T00:29:16.754Z,1017.07
2017-10-14T00:30:16.740Z,1017.07
2017-10-14T00:31:16.728Z,1017.08
2017-10-14T00:32:16.719Z,1017.11
2017-10-14T00:33:16.705Z,1017.1
2017-10-14T00:34:16.692Z,1017.12
2017-10-14T00:35:16.678Z,1017.11
2017-10-14T00:36:16.667Z,1017.13
2017-10-14T00:37:16.657Z,1017.12
2017-10-14T00:38:16.642Z,1017.1
2017-10-14T00:39:16.629Z,1017.11
2017-10-14T00:40:16.617Z,1017.1
2017-10-14T00:41:16.602Z,1017.14
2017-10-14T00:42:16.590Z,1017.12
2017-10-14T00:43:16.586Z,1017.11
2017-10-14T00:44:16.576Z,1017.12
2017-10-14T00:45:16.555Z,1017.09
2017-10-14T00:46:16.541Z,1017.09
2017-10-14T00:47:16.529Z,1017.13
2017-10-14T00:48:16.517Z,1017.11
2017-10-14T00:49:16.503Z,1017.13
2017-10-14T00:50:16.494Z,1017.16
2017-10-14T00:51:16.478Z,1017.15
2017-10-14T00:52:16.466Z,1017.08
2017-10-14T00:53:16.462Z,1017.09
2017-10-14T00:54:16.441Z,1017.15
2017-10-14T00:55:16.428Z,1017.12
2017-10-14T00:56:16.415Z,1017.1
2017-10-14T00:57:16.403Z,1017.1
2017-10-14T00:58:16.390Z,1017.09
2017-10-14T00:59:16.380Z,1017.09
2017-10-14T01:00:16.366Z,1017.07
2017-10-14T01:01:16.352Z,1017.07
2017-10-14T01:02:16.342Z,1017.07
2017-10-14T01:03:16.329Z,1017.08
2017-10-14T01:04:16.316Z,1017.09
2017-10-14T01:05:16.304Z,1017.06
2017-10-14T01:06:16.292Z,1017.11
2017-10-14T01:07:16.281Z,1017.13
2017-10-14T01:08:16.268Z,1017.11
2017-10-14T01:09:16.256Z,1017.11
2017-10-14T01:10:16.242Z,1017.09
2017-10-14T01:11:16.229Z,1017.08
2017-10-14T01:12:16.218Z,1017.09
2017-10-14T01:13:16.206Z,1017.1
2017-10-14T01:14:16.193Z,1017.07
2017-10-14T01:15:16.180Z,1017.07
2017-10-14T01:16:16.170Z,1017.05
2017-10-14T01:17:16.155Z,1017.04
2017-10-14T01:18:16.144Z,1017.07
2017-10-14T01:19:16.129Z,1017.04
2017-10-14T01:20:16.116Z,1017.05
2017-10-14T01:21:16.104Z,1017.03
2017-10-14T01:22:16.093Z,1016.99
2017-10-14T01:23:16.087Z,1017
2017-10-14T01:24:16.068Z,1016.96
2017-10-14T01:25:16.054Z,1017.01
2017-10-14T01:26:16.042Z,1016.94
2017-10-14T01:27:16.032Z,1016.93
2017-10-14T01:28:16.017Z,1016.94
2017-10-14T01:29:16.004Z,1016.93
2017-10-14T01:30:15.992Z,1016.94
2017-10-14T01:31:15.983Z,1016.93
2017-10-14T01:32:15.969Z,1016.96
2017-10-14T01:33:15.956Z,1016.93
2017-10-14T01:34:15.944Z,1016.96
2017-10-14T01:35:15.930Z,1016.95
2017-10-14T01:36:15.916Z,1016.94
2017-10-14T01:37:15.904Z,1016.95
2017-10-14T01:38:15.892Z,1016.92
2017-10-14T01:39:15.880Z,1016.92
2017-10-14T01:40:15.869Z,1016.97
2017-10-14T01:41:15.855Z,1016.94
2017-10-14T01:42:15.843Z,1016.94
2017-10-14T01:43:15.829Z,1016.94
2017-10-14T01:44:15.816Z,1016.93
2017-10-14T01:45:15.804Z,1016.93
2017-10-14T01:46:15.792Z,1016.95
2017-10-14T01:47:15.778Z,1016.96
2017-10-14T01:48:15.768Z,1016.97
2017-10-14T01:49:15.753Z,1016.96
2017-10-14T01:50:15.744Z,1016.93
2017-10-14T01:51:15.729Z,1016.94
2017-10-14T01:52:15.717Z,1016.92
2017-10-14T01:53:15.705Z,1016.9
2017-10-14T01:54:15.692Z,1016.92
2017-10-14T01:55:15.679Z,1016.93
2017-10-14T01:56:15.667Z,1016.89
2017-10-14T01:57:15.653Z,1016.9
2017-10-14T01:58:15.640Z,1016.96
2017-10-14T01:59:15.630Z,1016.95
2017-10-14T02:00:15.615Z,1016.98
2017-10-14T02:01:15.612Z,1016.96
2017-10-14T02:02:15.589Z,1016.92
2017-10-14T02:03:15.580Z,1016.95
2017-10-14T02:04:15.567Z,1016.9
2017-10-14T02:05:15.552Z,1016.94
2017-10-14T02:06:15.543Z,1016.91
2017-10-14T02:07:15.530Z,1016.9
2017-10-14T02:08:15.517Z,1016.89
2017-10-14T02:09:15.506Z,1016.88
2017-10-14T02:10:15.489Z,1016.88
2017-10-14T02:11:15.478Z,1016.89
2017-10-14T02:12:15.466Z,1016.88
2017-10-14T02:13:15.453Z,1016.86
2017-10-14T02:14:15.442Z,1016.86
2017-10-14T02:15:15.428Z,1016.86
2017-10-14T02:16:15.416Z,1016.83
2017-10-14T02:17:15.409Z,1016.81
2017-10-14T02:18:15.390Z,1016.86
2017-10-14T02:19:15.380Z,1016.81
2017-10-14T02:20:15.367Z,1016.82
2017-10-14T02:21:15.355Z,1016.84
2017-10-14T02:22:15.340Z,1016.83
2017-10-14T02:23:15.327Z,1016.81
2017-10-14T02:24:15.516Z,1016.81
2017-10-14T02:25:15.302Z,1016.82
2017-10-14T02:26:15.289Z,1016.81
2017-10-14T02:27:15.276Z,1016.82
2017-10-14T02:28:15.264Z,1016.84
2017-10-14T02:29:15.252Z,1016.86
2017-10-14T02:30:15.239Z,1016.85
2017-10-14T02:31:15.227Z,1016.85
2017-10-14T02:32:15.263Z,1016.84
2017-10-14T02:33:15.203Z,1016.87
2017-10-14T02:34:15.192Z,1016.85
2017-10-14T02:35:15.175Z,1016.91
2017-10-14T02:36:15.165Z,1016.91
2017-10-14T02:37:15.151Z,1016.91
2017-10-14T02:38:15.139Z,1016.89
2017-10-14T02:39:15.129Z,1016.9
2017-10-14T02:40:15.115Z,1016.95
2017-10-14T02:41:15.103Z,1016.92
2017-10-14T02:42:15.088Z,1016.93
2017-10-14T02:43:15.075Z,1016.96
2017-10-14T02:44:15.063Z,1017
2017-10-14T02:45:15.051Z,1016.97
2017-10-14T02:46:15.036Z,1016.99
2017-10-14T02:47:15.026Z,1016.97
2017-10-14T02:48:15.011Z,1016.99
2017-10-14T02:49:15.000Z,1016.95
2017-10-14T02:50:14.986Z,1017.01
2017-10-14T02:51:14.973Z,1016.96
2017-10-14T02:52:14.961Z,1016.96
2017-10-14T02:53:14.953Z,1017.03
2017-10-14T02:54:14.936Z,1017.02
2017-10-14T02:55:14.923Z,1017
2017-10-14T02:56:14.910Z,1017
2017-10-14T02:57:14.895Z,1017.02
2017-10-14T02:58:14.883Z,1017.03
2017-10-14T02:59:14.872Z,1017.02
2017-10-14T03:00:14.857Z,1017.02
2017-10-14T03:01:14.850Z,1016.97
2017-10-14T03:02:14.832Z,1017.03
2017-10-14T03:03:14.819Z,1017.01
2017-10-14T03:04:14.805Z,1016.99
2017-10-14T03:05:14.794Z,1017.02
2017-10-14T03:06:14.780Z,1017.02
2017-10-14T03:07:14.771Z,1017.07
2017-10-14T03:08:14.759Z,1017.05
2017-10-14T03:09:14.741Z,1017.08
2017-10-14T03:10:14.732Z,1017.07
2017-10-14T03:11:14.715Z,1017.05
2017-10-14T03:12:14.702Z,1017.06
2017-10-14T03:13:14.692Z,1017.03
2017-10-14T03:14:14.676Z,1017.07
2017-10-14T03:15:14.664Z,1017.02
2017-10-14T03:16:14.653Z,1017.07
2017-10-14T03:17:14.639Z,1017.03
2017-10-14T03:18:14.625Z,1017.07
2017-10-14T03:19:14.612Z,1017.12
2017-10-14T03:20:14.600Z,1017.03
2017-10-14T03:21:14.593Z,1017.05
2017-10-14T03:22:14.572Z,1017.05
2017-10-14T03:23:14.562Z,1017.06
2017-10-14T03:24:14.548Z,1017.04
2017-10-14T03:25:14.535Z,1017.05
2017-10-14T03:26:14.521Z,1017.03
2017-10-14T03:27:14.509Z,1017.04
2017-10-14T03:28:14.502Z,1017.03
2017-10-14T03:29:14.484Z,1017.01
2017-10-14T03:30:14.471Z,1017.06
2017-10-14T03:31:14.465Z,1017.04
2017-10-14T03:32:14.448Z,1017.03
2017-10-14T03:33:14.485Z,1017.06
2017-10-14T03:34:14.418Z,1017
2017-10-14T03:35:14.406Z,1017.05
2017-10-14T03:36:14.393Z,1017.08
2017-10-14T03:37:14.388Z,1017.05
2017-10-14T03:38:14.366Z,1017.04
2017-10-14T03:39:14.359Z,1017.04
2017-10-14T03:40:14.339Z,1017.03
2017-10-14T03:41:14.327Z,1017.01
2017-10-14T03:42:14.322Z,1017.05
2017-10-14T03:43:14.303Z,1017.04
2017-10-14T03:44:14.288Z,1017.05
2017-10-14T03:45:14.278Z,1017.01
2017-10-14T03:46:14.263Z,1017.05
2017-10-14T03:47:14.250Z,1017.05
2017-10-14T03:48:14.235Z,1017.06
2017-10-14T03:49:14.228Z,1017
2017-10-14T03:50:14.210Z,1017.08
2017-10-14T03:51:14.200Z,1017.07
2017-10-14T03:52:14.188Z,1017.07
2017-10-14T03:53:14.172Z,1017.03
2017-10-14T03:54:14.172Z,1017.03
2017-10-14T03:55:14.145Z,1017.03
2017-10-14T03:56:14.133Z,1016.99
2017-10-14T03:57:14.123Z,1017.04
2017-10-14T03:58:14.107Z,1017.02
2017-10-14T03:59:14.098Z,1017.08
2017-10-14T04:00:14.081Z,1017.06
2017-10-14T04:01:14.069Z,1017.04
2017-10-14T04:02:14.053Z,1017.06
2017-10-14T04:03:14.043Z,1017.06
2017-10-14T04:04:14.030Z,1017.04
2017-10-14T04:05:14.016Z,1017.03
2017-10-14T04:06:14.010Z,1017.07
2017-10-14T04:07:13.990Z,1017.05
2017-10-14T04:08:13.977Z,1017.1
2017-10-14T04:09:13.962Z,1017.06
2017-10-14T04:10:13.950Z,1017.11
2017-10-14T04:11:13.939Z,1017.12
2017-10-14T04:12:13.925Z,1017.1
2017-10-14T04:13:13.912Z,1017.12
2017-10-14T04:14:13.901Z,1017.12
2017-10-14T04:15:13.889Z,1017.16
2017-10-14T04:16:13.873Z,1017.19
2017-10-14T04:17:13.861Z,1017.17
2017-10-14T04:18:13.847Z,1017.19
2017-10-14T04:19:13.834Z,1017.21
2017-10-14T04:20:13.819Z,1017.2
2017-10-14T04:21:13.806Z,1017.17
2017-10-14T04:22:13.794Z,1017.19
2017-10-14T04:23:13.782Z,1017.13
2017-10-14T04:24:13.969Z,1017.16
2017-10-14T04:25:13.755Z,1017.17
2017-10-14T04:26:13.747Z,1017.15
2017-10-14T04:27:13.729Z,1017.19
2017-10-14T04:28:13.715Z,1017.14
2017-10-14T04:29:13.752Z,1017.14
2017-10-14T04:30:13.690Z,1017.15
2017-10-14T04:31:13.678Z,1017.16
2017-10-14T04:32:13.664Z,1017.19
2017-10-14T04:33:13.648Z,1017.17
2017-10-14T04:34:13.638Z,1017.17
2017-10-14T04:35:13.624Z,1017.16
2017-10-14T04:36:13.610Z,1017.2
2017-10-14T04:37:13.598Z,1017.2
2017-10-14T04:38:13.585Z,1017.23
2017-10-14T04:39:13.572Z,1017.21
2017-10-14T04:40:13.559Z,1017.19
2017-10-14T04:41:13.545Z,1017.19
2017-10-14T04:42:13.532Z,1017.2
2017-10-14T04:43:13.518Z,1017.24
2017-10-14T04:44:13.512Z,1017.25
2017-10-14T04:45:13.494Z,1017.25
2017-10-14T04:46:13.478Z,1017.25
2017-10-14T04:47:13.464Z,1017.23
2017-10-14T04:48:13.459Z,1017.25
2017-10-14T04:49:13.439Z,1017.22
2017-10-14T04:50:13.426Z,1017.21
2017-10-14T04:51:13.411Z,1017.25
2017-10-14T04:52:13.399Z,1017.24
2017-10-14T04:53:13.386Z,1017.26
2017-10-14T04:54:13.373Z,1017.29
2017-10-14T04:55:13.361Z,1017.28
2017-10-14T04:56:13.346Z,1017.24
2017-10-14T04:57:13.337Z,1017.25
2017-10-14T04:58:13.319Z,1017.28
2017-10-14T04:59:13.309Z,1017.24
2017-10-14T05:00:13.294Z,1017.21
2017-10-14T05:01:13.279Z,1017.18
2017-10-14T05:02:13.269Z,1017.21
2017-10-14T05:03:13.255Z,1017.19
2017-10-14T05:04:13.240Z,1017.17
2017-10-14T05:05:13.226Z,1017.19
2017-10-14T05:06:13.214Z,1017.2
2017-10-14T05:07:13.201Z,1017.19
2017-10-14T05:08:13.190Z,1017.22
2017-10-14T05:09:13.174Z,1017.21
2017-10-14T05:10:13.161Z,1017.18
2017-10-14T05:11:13.147Z,1017.17
2017-10-14T05:12:13.134Z,1017.19
2017-10-14T05:13:13.122Z,1017.15
2017-10-14T05:14:13.108Z,1017.17
2017-10-14T05:15:13.094Z,1017.09
2017-10-14T05:16:13.080Z,1017.11
2017-10-14T05:17:13.067Z,1017.13
2017-10-14T05:18:13.055Z,1017.18
2017-10-14T05:19:13.040Z,1017.16
2017-10-14T05:20:13.027Z,1017.22
2017-10-14T05:21:13.014Z,1017.22
2017-10-14T05:22:13.007Z,1017.22
2017-10-14T05:23:12.989Z,1017.23
2017-10-14T05:24:12.975Z,1017.24
2017-10-14T05:25:12.962Z,1017.26
2017-10-14T05:26:12.947Z,1017.25
2017-10-14T05:27:12.936Z,1017.24
2017-10-14T05:28:12.921Z,1017.26
2017-10-14T05:29:12.910Z,1017.21
2017-10-14T05:30:12.897Z,1017.28
2017-10-14T05:31:12.881Z,1017.27
2017-10-14T05:32:12.868Z,1017.25
2017-10-14T05:33:12.854Z,1017.24
2017-10-14T05:34:12.840Z,1017.27
2017-10-14T05:35:12.876Z,1017.22
2017-10-14T05:36:12.814Z,1017.27
2017-10-14T05:37:12.801Z,1017.25
2017-10-14T05:38:12.791Z,1017.24
2017-10-14T05:39:12.774Z,1017.29
2017-10-14T05:40:12.766Z,1017.28
2017-10-14T05:41:12.748Z,1017.3
2017-10-14T05:42:12.734Z,1017.27
2017-10-14T05:43:12.720Z,1017.27
2017-10-14T05:44:12.706Z,1017.27
2017-10-14T05:45:12.705Z,1017.27
2017-10-14T05:46:12.682Z,1017.25
2017-10-14T05:47:12.667Z,1017.25
2017-10-14T05:48:12.657Z,1017.25
2017-10-14T05:49:12.644Z,1017.29
2017-10-14T05:50:12.635Z,1017.28
2017-10-14T05:51:12.626Z,1017.25
2017-10-14T05:52:12.601Z,1017.27
2017-10-14T05:53:12.589Z,1017.27
2017-10-14T05:54:12.574Z,1017.27
2017-10-14T05:55:12.561Z,1017.25
2017-10-14T05:56:12.547Z,1017.26
2017-10-14T05:57:12.537Z,1017.28
2017-10-14T05:58:12.521Z,1017.22
2017-10-14T05:59:12.506Z,1017.24
2017-10-14T06:00:12.495Z,1017.28
2017-10-14T06:01:12.479Z,1017.26
2017-10-14T06:02:12.468Z,1017.28
2017-10-14T06:03:12.452Z,1017.28
2017-10-14T06:04:12.442Z,1017.27
2017-10-14T06:05:12.426Z,1017.28
2017-10-14T06:06:12.413Z,1017.3
2017-10-14T06:07:12.401Z,1017.24
2017-10-14T06:08:12.384Z,1017.27
2017-10-14T06:09:12.373Z,1017.28
2017-10-14T06:10:12.359Z,1017.27
2017-10-14T06:11:12.347Z,1017.28
2017-10-14T06:12:12.336Z,1017.31
2017-10-14T06:13:12.320Z,1017.28
2017-10-14T06:14:12.304Z,1017.35
2017-10-14T06:15:12.291Z,1017.37
2017-10-14T06:16:12.280Z,1017.34
2017-10-14T06:17:12.263Z,1017.31
2017-10-14T06:18:12.253Z,1017.35
2017-10-14T06:19:12.238Z,1017.34
2017-10-14T06:20:12.224Z,1017.37
2017-10-14T06:21:12.210Z,1017.36
2017-10-14T06:22:12.197Z,1017.4
2017-10-14T06:23:12.183Z,1017.36
2017-10-14T06:24:12.173Z,1017.4
2017-10-14T06:25:12.156Z,1017.46
2017-10-14T06:26:12.145Z,1017.49
2017-10-14T06:27:12.129Z,1017.51
2017-10-14T06:28:12.169Z,1017.51
2017-10-14T06:29:12.101Z,1017.49
2017-10-14T06:30:12.139Z,1017.54
2017-10-14T06:31:12.076Z,1017.51
2017-10-14T06:32:12.073Z,1017.55
2017-10-14T06:33:12.051Z,1017.52
2017-10-14T06:34:12.037Z,1017.54
2017-10-14T06:35:12.022Z,1017.55
2017-10-14T06:36:12.081Z,1017.53
2017-10-14T06:37:11.994Z,1017.56
2017-10-14T06:38:11.984Z,1017.58
2017-10-14T06:39:11.967Z,1017.59
2017-10-14T06:40:11.968Z,1017.56
2017-10-14T06:41:11.941Z,1017.6
2017-10-14T06:42:11.939Z,1017.59
2017-10-14T06:43:11.916Z,1017.64
2017-10-14T06:44:11.902Z,1017.62
2017-10-14T06:45:11.889Z,1017.63
2017-10-14T06:46:11.878Z,1017.7
2017-10-14T06:47:11.862Z,1017.67
2017-10-14T06:48:11.847Z,1017.71
2017-10-14T06:49:11.834Z,1017.71
2017-10-14T06:50:11.827Z,1017.68
2017-10-14T06:51:11.812Z,1017.72
2017-10-14T06:52:11.796Z,1017.73
2017-10-14T06:53:11.782Z,1017.74
2017-10-14T06:54:11.771Z,1017.71
2017-10-14T06:55:11.755Z,1017.74
2017-10-14T06:56:11.742Z,1017.77
2017-10-14T06:57:11.729Z,1017.8
2017-10-14T06:58:11.715Z,1017.78
2017-10-14T06:59:11.703Z,1017.81
2017-10-14T07:00:11.689Z,1017.82
2017-10-14T07:01:11.675Z,1017.83
2017-10-14T07:02:11.662Z,1017.87
2017-10-14T07:03:11.652Z,1017.85
2017-10-14T07:04:11.640Z,1017.87
2017-10-14T07:05:11.623Z,1017.85
2017-10-14T07:06:11.617Z,1017.92
2017-10-14T07:07:11.598Z,1017.89
2017-10-14T07:08:11.584Z,1017.89
2017-10-14T07:09:11.574Z,1017.94
2017-10-14T07:10:11.557Z,1017.94
2017-10-14T07:11:11.556Z,1017.95
2017-10-14T07:12:11.583Z,1017.95
2017-10-14T07:13:11.519Z,1017.92
2017-10-14T07:14:11.506Z,1017.95
2017-10-14T07:15:11.497Z,1017.97
2017-10-14T07:16:11.480Z,1017.98
2017-10-14T07:17:11.467Z,1018
2017-10-14T07:18:11.454Z,1017.98
2017-10-14T07:19:11.442Z,1018
2017-10-14T07:20:11.429Z,1017.98
2017-10-14T07:21:11.416Z,1018
2017-10-14T07:22:11.407Z,1017.97
2017-10-14T07:23:11.389Z,1017.98
2017-10-14T07:24:11.380Z,1017.99
2017-10-14T07:25:11.365Z,1017.98
2017-10-14T07:26:11.361Z,1018.03
2017-10-14T07:27:11.341Z,1018.01
2017-10-14T07:28:11.326Z,1018.02
2017-10-14T07:29:11.313Z,1018.05
2017-10-14T07:30:11.300Z,1018.07
2017-10-14T07:31:11.292Z,1018.07
2017-10-14T07:32:11.275Z,1018.09
2017-10-14T07:33:11.262Z,1018.06
2017-10-14T07:34:11.250Z,1018.08
2017-10-14T07:35:11.236Z,1018.11
2017-10-14T07:36:11.224Z,1018.07
2017-10-14T07:37:11.216Z,1018.07
2017-10-14T07:38:11.198Z,1018.11
2017-10-14T07:39:11.186Z,1018.13
2017-10-14T07:40:11.173Z,1018.08
2017-10-14T07:41:11.161Z,1018.11
2017-10-14T07:42:11.149Z,1018.08
2017-10-14T07:43:11.134Z,1018.07
2017-10-14T07:44:11.124Z,1018.16
2017-10-14T07:45:11.110Z,1018.14
2017-10-14T07:46:11.096Z,1018.16
2017-10-14T07:47:11.091Z,1018.12
2017-10-14T07:48:11.075Z,1018.17
2017-10-14T07:49:11.060Z,1018.17
2017-10-14T07:50:11.045Z,1018.2
2017-10-14T07:51:11.033Z,1018.2
2017-10-14T07:52:11.021Z,1018.19
2017-10-14T07:53:11.010Z,1018.19
2017-10-14T07:54:10.996Z,1018.25
2017-10-14T07:55:10.986Z,1018.26
2017-10-14T07:56:10.970Z,1018.23
2017-10-14T07:57:10.959Z,1018.25
2017-10-14T07:58:10.947Z,1018.24
2017-10-14T07:59:10.935Z,1018.22
2017-10-14T08:00:10.925Z,1018.23
2017-10-14T08:01:10.908Z,1018.26
2017-10-14T08:02:10.899Z,1018.23
2017-10-14T08:03:10.884Z,1018.22
2017-10-14T08:04:10.875Z,1018.18
2017-10-14T08:05:10.865Z,1018.13
2017-10-14T08:06:10.851Z,1018.18
2017-10-14T08:07:10.837Z,1018.2
2017-10-14T08:08:10.823Z,1018.22
2017-10-14T08:09:10.817Z,1018.19
2017-10-14T08:10:10.801Z,1018.21
2017-10-14T08:11:10.787Z,1018.19
2017-10-14T08:12:10.776Z,1018.25
2017-10-14T08:13:10.764Z,1018.2
2017-10-14T08:14:10.756Z,1018.26
2017-10-14T08:15:10.889Z,1018.24
2017-10-14T08:16:10.727Z,1018.23
2017-10-14T08:17:10.716Z,1018.26
2017-10-14T08:18:10.704Z,1018.25
2017-10-14T08:19:10.693Z,1018.28
2017-10-14T08:20:10.680Z,1018.25
2017-10-14T08:21:10.670Z,1018.29
2017-10-14T08:22:10.657Z,1018.22
2017-10-14T08:23:10.645Z,1018.26
2017-10-14T08:24:10.635Z,1018.24
2017-10-14T08:25:10.824Z,1018.28
2017-10-14T08:26:10.609Z,1018.3
2017-10-14T08:27:10.601Z,1018.29
2017-10-14T08:28:10.590Z,1018.24
2017-10-14T08:29:10.576Z,1018.21
2017-10-14T08:30:10.563Z,1018.25
2017-10-14T08:31:10.552Z,1018.28
2017-10-14T08:32:10.541Z,1018.31
2017-10-14T08:33:10.530Z,1018.3
2017-10-14T08:34:10.516Z,1018.25
2017-10-14T08:35:10.507Z,1018.28
2017-10-14T08:36:10.496Z,1018.22
2017-10-14T08:37:10.482Z,1018.29
2017-10-14T08:38:10.470Z,1018.26
2017-10-14T08:39:10.458Z,1018.26
2017-10-14T08:40:10.452Z,1018.3
2017-10-14T08:41:10.436Z,1018.36
2017-10-14T08:42:10.423Z,1018.35
2017-10-14T08:43:10.414Z,1018.37
2017-10-14T08:44:10.401Z,1018.35
2017-10-14T08:45:10.390Z,1018.35
2017-10-14T08:46:10.379Z,1018.39
2017-10-14T08:47:10.365Z,1018.4
2017-10-14T08:48:10.357Z,1018.44
2017-10-14T08:49:10.343Z,1018.33
2017-10-14T08:50:10.332Z,1018.37
2017-10-14T08:51:10.321Z,1018.33
2017-10-14T08:52:10.310Z,1018.38
2017-10-14T08:53:10.302Z,1018.38
2017-10-14T08:54:10.288Z,1018.42
2017-10-14T08:55:10.275Z,1018.37
2017-10-14T08:56:10.264Z,1018.45
2017-10-14T08:57:10.255Z,1018.46
2017-10-14T08:58:10.241Z,1018.41
2017-10-14T08:59:10.230Z,1018.41
2017-10-14T09:00:10.226Z,1018.39
2017-10-14T09:01:10.209Z,1018.45
2017-10-14T09:02:10.196Z,1018.48
2017-10-14T09:03:10.185Z,1018.46
2017-10-14T09:04:10.174Z,1018.45
2017-10-14T09:05:10.164Z,1018.47
2017-10-14T09:06:10.153Z,1018.49
2017-10-14T09:07:10.142Z,1018.47
2017-10-14T09:08:10.130Z,1018.45
2017-10-14T09:09:10.118Z,1018.45
2017-10-14T09:10:10.105Z,1018.47
2017-10-14T09:11:10.095Z,1018.46
2017-10-14T09:12:10.085Z,1018.53
2017-10-14T09:13:10.072Z,1018.54
2017-10-14T09:14:10.064Z,1018.5
2017-10-14T09:15:10.052Z,1018.5
2017-10-14T09:16:10.039Z,1018.53
2017-10-14T09:17:10.028Z,1018.53
2017-10-14T09:18:10.017Z,1018.54
2017-10-14T09:19:10.008Z,1018.59
2017-10-14T09:20:09.996Z,1018.58
2017-10-14T09:21:09.983Z,1018.61
2017-10-14T09:22:09.974Z,1018.58
2017-10-14T09:23:09.965Z,1018.52
2017-10-14T09:24:09.955Z,1018.53
2017-10-14T09:25:09.942Z,1018.55
2017-10-14T09:26:09.930Z,1018.64
2017-10-14T09:27:09.918Z,1018.62
2017-10-14T09:28:09.908Z,1018.65
2017-10-14T09:29:09.897Z,1018.64
2017-10-14T09:30:09.887Z,1018.64
2017-10-14T09:31:09.877Z,1018.68
2017-10-14T09:32:09.868Z,1018.66
2017-10-14T09:33:09.856Z,1018.7
2017-10-14T09:34:09.845Z,1018.66
2017-10-14T09:35:09.834Z,1018.74
2017-10-14T09:36:09.823Z,1018.65
2017-10-14T09:37:09.815Z,1018.66
2017-10-14T09:38:09.802Z,1018.68
2017-10-14T09:39:09.791Z,1018.67
2017-10-14T09:40:09.781Z,1018.64
2017-10-14T09:41:09.777Z,1018.64
2017-10-14T09:42:09.759Z,1018.64
2017-10-14T09:43:09.752Z,1018.62
2017-10-14T09:44:09.740Z,1018.63
2017-10-14T09:45:09.729Z,1018.6
2017-10-14T09:46:09.731Z,1018.62
2017-10-14T09:47:09.717Z,1018.6
2017-10-14T09:48:09.698Z,1018.56
2017-10-14T09:49:09.687Z,1018.62
2017-10-14T09:50:09.676Z,1018.59
2017-10-14T09:51:09.669Z,1018.55
2017-10-14T09:52:09.659Z,1018.6
2017-10-14T09:53:09.646Z,1018.58
2017-10-14T09:54:09.635Z,1018.53
2017-10-14T09:55:09.629Z,1018.56
2017-10-14T09:56:09.617Z,1018.53
2017-10-14T09:57:09.607Z,1018.53
2017-10-14T09:58:09.594Z,1018.54
2017-10-14T09:59:09.586Z,1018.57
2017-10-14T10:00:09.573Z,1018.54
2017-10-14T10:01:09.564Z,1018.58
2017-10-14T10:02:09.557Z,1018.55
2017-10-14T10:03:09.544Z,1018.58
2017-10-14T10:04:09.535Z,1018.55
2017-10-14T10:05:09.522Z,1018.57
2017-10-14T10:06:09.511Z,1018.6
2017-10-14T10:07:09.503Z,1018.61
2017-10-14T10:08:09.491Z,1018.63
2017-10-14T10:09:09.481Z,1018.62
2017-10-14T10:10:09.471Z,1018.59
2017-10-14T10:11:09.464Z,1018.58
2017-10-14T10:12:09.451Z,1018.62
2017-10-14T10:13:09.456Z,1018.55
2017-10-14T10:14:09.431Z,1018.61
2017-10-14T10:15:09.420Z,1018.61
2017-10-14T10:16:09.411Z,1018.59
2017-10-14T10:17:09.401Z,1018.59
2017-10-14T10:18:09.391Z,1018.57
2017-10-14T10:19:09.379Z,1018.53
2017-10-14T10:20:09.388Z,1018.55
2017-10-14T10:21:09.361Z,1018.5
2017-10-14T10:22:09.351Z,1018.51
2017-10-14T10:23:09.343Z,1018.51
2017-10-14T10:24:09.336Z,1018.46
2017-10-14T10:25:09.526Z,1018.48
2017-10-14T10:26:09.312Z,1018.47
2017-10-14T10:27:09.301Z,1018.44
2017-10-14T10:28:09.293Z,1018.43
2017-10-14T10:29:09.283Z,1018.35
2017-10-14T10:30:09.275Z,1018.42
2017-10-14T10:31:09.269Z,1018.42
2017-10-14T10:32:09.256Z,1018.41
2017-10-14T10:33:09.245Z,1018.44
2017-10-14T10:34:09.235Z,1018.46
2017-10-14T10:35:09.226Z,1018.38
2017-10-14T10:36:09.216Z,1018.41
2017-10-14T10:37:09.207Z,1018.44
2017-10-14T10:38:09.199Z,1018.4
2017-10-14T10:39:09.190Z,1018.67
2017-10-14T10:40:09.178Z,1018.7
2017-10-14T10:41:09.171Z,1018.38
2017-10-14T10:42:09.160Z,1018.39
2017-10-14T10:43:09.150Z,1018.43
2017-10-14T10:44:09.141Z,1018.39
2017-10-14T10:45:09.132Z,1018.39
2017-10-14T10:46:09.126Z,1018.39
2017-10-14T10:47:09.116Z,1018.31
2017-10-14T10:48:09.104Z,1018.33
2017-10-14T10:49:09.097Z,1018.29
2017-10-14T10:50:09.087Z,1018.32
2017-10-14T10:51:09.079Z,1018.25
2017-10-14T10:52:09.068Z,1018.26
2017-10-14T10:53:09.062Z,1018.25
2017-10-14T10:54:09.052Z,1018.2
2017-10-14T10:55:09.044Z,1018.23
2017-10-14T10:56:09.034Z,1018.25
2017-10-14T10:57:09.027Z,1018.2
2017-10-14T10:58:09.024Z,1018.25
2017-10-14T10:59:09.010Z,1018.2
2017-10-14T11:00:09.001Z,1018.17
2017-10-14T11:01:08.991Z,1018.14
2017-10-14T11:02:08.984Z,1018.1
2017-10-14T11:03:08.975Z,1018.11
2017-10-14T11:04:08.967Z,1018.13
2017-10-14T11:05:08.961Z,1018.11
2017-10-14T11:06:08.962Z,1018.14
2017-10-14T11:07:08.952Z,1018.17
2017-10-14T11:08:08.948Z,1018.17
2017-10-14T11:09:08.939Z,1018.17
2017-10-14T11:10:08.921Z,1018.16
2017-10-14T11:11:08.911Z,1018.16
2017-10-14T11:12:08.901Z,1018.18
2017-10-14T11:13:08.910Z,1018.15
2017-10-14T11:14:08.884Z,1018.22
2017-10-14T11:15:08.907Z,1018.16
2017-10-14T11:16:08.885Z,1018.23
2017-10-14T11:17:08.866Z,1018.25
2017-10-14T11:18:08.854Z,1018.24
2017-10-14T11:19:08.843Z,1018.22
2017-10-14T11:20:08.835Z,1018.21
2017-10-14T11:21:08.832Z,1018.2
2017-10-14T11:22:08.825Z,1018.17
2017-10-14T11:23:08.810Z,1018.14
2017-10-14T11:24:08.805Z,1018.13
2017-10-14T11:25:08.802Z,1018.13
2017-10-14T11:26:08.787Z,1018.16
2017-10-14T11:27:08.780Z,1018.15
2017-10-14T11:28:08.771Z,1018.12
2017-10-14T11:29:08.776Z,1018.09
2017-10-14T11:30:08.771Z,1018.11
2017-10-14T11:31:08.784Z,1018.04
2017-10-14T11:32:08.762Z,1018
2017-10-14T11:33:08.741Z,1018.01
2017-10-14T11:34:08.737Z,1017.94
2017-10-14T11:35:08.726Z,1017.96
2017-10-14T11:36:08.724Z,1018.05
2017-10-14T11:37:08.728Z,1017.97
2017-10-14T11:38:08.710Z,1017.96
2017-10-14T11:39:08.700Z,1017.97
2017-10-14T11:40:08.746Z,1017.97
2017-10-14T11:41:08.692Z,1017.95
2017-10-14T11:42:08.686Z,1017.9
2017-10-14T11:43:08.682Z,1017.95
2017-10-14T11:44:08.686Z,1017.92
2017-10-14T11:45:08.671Z,1017.89
2017-10-14T11:46:08.649Z,1017.86
2017-10-14T11:47:08.656Z,1017.83
2017-10-14T11:48:08.653Z,1017.82
2017-10-14T11:49:08.652Z,1017.85
2017-10-14T11:50:08.627Z,1017.86
2017-10-14T11:51:08.649Z,1017.78
2017-10-14T11:52:08.640Z,1017.82
2017-10-14T11:53:08.612Z,1017.8
2017-10-14T11:54:08.607Z,1017.77
2017-10-14T11:55:08.602Z,1017.72
2017-10-14T11:56:08.590Z,1017.79
2017-10-14T11:57:08.581Z,1017.83
2017-10-14T11:58:08.589Z,1017.88
2017-10-14T11:59:08.571Z,1017.9
2017-10-14T12:00:08.571Z,1017.93
2017-10-14T12:01:08.562Z,1017.85
2017-10-14T12:02:08.561Z,1017.87
2017-10-14T12:03:08.556Z,1017.92
2017-10-14T12:04:08.553Z,1017.9
2017-10-14T12:05:08.567Z,1017.89
2017-10-14T12:06:08.543Z,1017.89
2017-10-14T12:07:08.542Z,1017.9
2017-10-14T12:08:08.545Z,1017.86